Time;durP1;ratioP1;P1;durP2;ratioP2;P2;SDS_P1;SDS_P2;PMS_P1;PMS_P2;Temp;Humidity;BMP_temperature;BMP_pressure;BME280_temperature;BME280_humidity;BME280_pressure;Samples;Min_cycle;Max_cycle;Signal;HPM_P1;HPM_P2
2023/10/26 00:01:54;;;;;;;;;;;9.90;99.90;;;;;;4997187;28;19927;-70
2023/10/26 00:04:20;;;;;;;;;;;9.80;99.90;;;;;;5056450;28;19921;-72
2023/10/26 00:06:46;;;;;;;;;;;9.80;99.90;;;;;;5013712;28;19937;-71
2023/10/26 00:09:12;;;;;;;;;;;9.80;99.90;;;;;;5006448;28;19931;-73
2023/10/26 00:11:38;;;;;;;;;;;9.80;99.90;;;;;;5020282;28;19973;-72
2023/10/26 00:14:04;;;;;;;;;;;9.80;99.90;;;;;;5036011;28;19931;-72
2023/10/26 00:16:30;;;;;;;;;;;9.80;99.90;;;;;;5005496;28;19932;-73
2023/10/26 00:18:56;;;;;;;;;;;9.80;99.90;;;;;;5031248;28;19925;-72
2023/10/26 00:21:22;;;;;;;;;;;9.80;99.90;;;;;;5005940;28;19925;-71
2023/10/26 00:23:48;;;;;;;;;;;9.80;99.90;;;;;;5010030;28;19929;-74
2023/10/26 00:26:13;;;;;;;;;;;9.80;99.90;;;;;;4999535;28;19924;-73
2023/10/26 00:28:39;;;;;;;;;;;9.80;99.90;;;;;;5016124;28;19922;-72
2023/10/26 00:31:05;;;;;;;;;;;9.80;99.90;;;;;;5003279;28;20521;-70
2023/10/26 00:33:31;;;;;;;;;;;9.80;99.90;;;;;;5016826;28;20363;-71
2023/10/26 00:35:57;;;;;;;;;;;9.80;99.90;;;;;;5003050;28;19931;-71
2023/10/26 00:38:23;;;;;;;;;;;9.70;99.90;;;;;;5033666;28;19928;-71
2023/10/26 00:40:49;;;;;;;;;;;9.70;99.90;;;;;;5011138;28;19936;-72
2023/10/26 00:43:21;;;;;;;;;;;9.70;99.90;;;;;;5042936;28;19921;-72
2023/10/26 00:45:51;;;;;;;;;;;9.70;99.90;;;;;;5021878;28;19925;-72
2023/10/26 00:48:17;;;;;;;;;;;9.60;99.90;;;;;;5033077;28;19921;-72
2023/10/26 00:50:44;;;;;;;;;;;9.60;99.90;;;;;;4997432;28;19928;-72
2023/10/26 00:53:10;;;;;;;;;;;9.60;99.90;;;;;;5053019;28;19929;-72
2023/10/26 00:55:36;;;;;;;;;;;9.60;99.90;;;;;;5012123;28;19928;-71
2023/10/26 00:58:03;;;;;;;;;;;9.60;99.90;;;;;;5036904;28;19921;-71
2023/10/26 01:00:30;;;;;;;;;;;9.50;99.90;;;;;;5001430;28;20308;-71
2023/10/26 01:02:56;;;;;;;;;;;9.50;99.90;;;;;;5009328;28;20415;-70
2023/10/26 01:05:21;;;;;;;;;;;9.60;99.90;;;;;;5013186;28;19928;-71
2023/10/26 01:07:47;;;;;;;;;;;9.50;99.90;;;;;;5036950;28;19952;-72
2023/10/26 01:10:13;;;;;;;;;;;9.50;99.90;;;;;;5002339;28;19944;-72
2023/10/26 01:12:39;;;;;;;;;;;9.60;99.90;;;;;;5050955;28;19947;-72
2023/10/26 01:15:06;;;;;;;;;;;9.50;99.90;;;;;;4998752;28;19929;-71
2023/10/26 01:17:33;;;;;;;;;;;9.60;99.90;;;;;;5016717;28;19925;-71
2023/10/26 01:19:59;;;;;;;;;;;9.50;99.90;;;;;;4980593;28;20307;-70
2023/10/26 01:22:29;;;;;;;;;;;9.50;99.90;;;;;;5033790;28;19929;-73
2023/10/26 01:24:55;;;;;;;;;;;9.50;99.90;;;;;;5002389;28;20399;-71
2023/10/26 01:27:21;;;;;;;;;;;9.50;99.90;;;;;;5003813;28;20288;-72
2023/10/26 01:29:47;;;;;;;;;;;9.50;99.90;;;;;;5022689;28;19933;-71
2023/10/26 01:32:13;;;;;;;;;;;9.50;99.90;;;;;;5025918;28;19925;-72
2023/10/26 01:34:40;;;;;;;;;;;9.50;99.90;;;;;;5026360;28;19925;-72
2023/10/26 01:37:05;;;;;;;;;;;9.50;99.90;;;;;;5010010;28;19927;-71
2023/10/26 01:39:32;;;;;;;;;;;9.50;99.90;;;;;;5024844;28;19937;-72
2023/10/26 01:41:58;;;;;;;;;;;9.50;99.90;;;;;;5006395;28;19921;-71
2023/10/26 01:44:24;;;;;;;;;;;9.50;99.90;;;;;;5006428;28;19925;-71
2023/10/26 01:46:50;;;;;;;;;;;9.60;99.90;;;;;;5006281;28;19925;-70
2023/10/26 01:49:16;;;;;;;;;;;9.60;99.90;;;;;;5006724;28;19925;-71
2023/10/26 01:51:42;;;;;;;;;;;9.60;99.90;;;;;;5020823;28;20364;-70
2023/10/26 01:54:07;;;;;;;;;;;9.50;99.90;;;;;;5025250;28;19929;-71
2023/10/26 01:56:33;;;;;;;;;;;9.50;99.90;;;;;;5005841;28;19920;-71
2023/10/26 01:58:59;;;;;;;;;;;9.60;99.90;;;;;;5030353;28;19921;-72
2023/10/26 02:01:25;;;;;;;;;;;9.50;99.90;;;;;;5011330;28;19924;-72
2023/10/26 02:03:51;;;;;;;;;;;9.50;99.90;;;;;;5034717;28;19928;-72
2023/10/26 02:06:17;;;;;;;;;;;9.50;99.90;;;;;;5008705;28;19920;-71
2023/10/26 02:08:43;;;;;;;;;;;9.50;99.90;;;;;;5034270;28;20418;-72
2023/10/26 02:11:09;;;;;;;;;;;9.60;99.90;;;;;;5002025;28;20083;-72
2023/10/26 02:13:35;;;;;;;;;;;9.60;99.90;;;;;;5015136;28;20480;-71
2023/10/26 02:16:01;;;;;;;;;;;9.50;99.90;;;;;;4988637;28;19984;-71
2023/10/26 02:18:28;;;;;;;;;;;9.60;99.90;;;;;;5016827;28;20499;-71
2023/10/26 02:20:54;;;;;;;;;;;9.50;99.90;;;;;;4988280;28;19932;-70
2023/10/26 02:23:21;;;;;;;;;;;9.60;99.90;;;;;;5019372;28;19921;-71
2023/10/26 02:25:47;;;;;;;;;;;9.50;99.90;;;;;;5007347;28;19929;-72
2023/10/26 02:28:16;;;;;;;;;;;9.50;99.90;;;;;;5009471;28;19926;-73
2023/10/26 02:30:42;;;;;;;;;;;9.60;99.90;;;;;;4982228;28;20323;-71
2023/10/26 02:33:08;;;;;;;;;;;9.50;99.90;;;;;;5016557;28;19928;-71
2023/10/26 02:35:34;;;;;;;;;;;9.60;99.90;;;;;;4990927;28;20337;-71
2023/10/26 02:38:00;;;;;;;;;;;9.60;99.90;;;;;;5030095;28;19929;-70
2023/10/26 02:40:26;;;;;;;;;;;9.60;99.90;;;;;;5002298;28;19951;-72
2023/10/26 02:42:52;;;;;;;;;;;9.60;99.90;;;;;;5028264;28;20379;-71
2023/10/26 02:45:18;;;;;;;;;;;9.60;99.90;;;;;;5000525;28;19921;-71
2023/10/26 02:47:44;;;;;;;;;;;9.60;99.90;;;;;;5042723;28;20392;-72
2023/10/26 02:50:10;;;;;;;;;;;9.60;99.90;;;;;;5001935;28;20011;-71
2023/10/26 02:52:37;;;;;;;;;;;9.60;99.90;;;;;;5048311;28;20411;-71
2023/10/26 02:55:04;;;;;;;;;;;9.60;99.90;;;;;;4979856;28;19955;-70
2023/10/26 02:57:30;;;;;;;;;;;9.60;99.90;;;;;;5047308;28;20304;-71
2023/10/26 02:59:56;;;;;;;;;;;9.50;99.90;;;;;;4997483;28;19920;-71
2023/10/26 03:02:22;;;;;;;;;;;9.50;99.90;;;;;;5031991;28;19930;-71
2023/10/26 03:04:48;;;;;;;;;;;9.50;99.90;;;;;;5001632;28;19960;-71
2023/10/26 03:07:20;;;;;;;;;;;9.50;99.90;;;;;;5007603;28;19931;-72
2023/10/26 03:09:46;;;;;;;;;;;9.50;99.90;;;;;;5005740;28;20300;-72
2023/10/26 03:12:12;;;;;;;;;;;9.50;99.90;;;;;;5027769;28;19924;-71
2023/10/26 03:14:38;;;;;;;;;;;9.50;99.90;;;;;;5022033;28;19925;-70
2023/10/26 03:17:04;;;;;;;;;;;9.50;99.90;;;;;;4993914;28;19928;-71
2023/10/26 03:19:30;;;;;;;;;;;9.50;99.90;;;;;;5024263;28;19925;-70
2023/10/26 03:21:57;;;;;;;;;;;9.50;99.90;;;;;;5027043;28;20398;-72
2023/10/26 03:24:23;;;;;;;;;;;9.50;99.90;;;;;;5020682;28;20296;-71
2023/10/26 03:26:49;;;;;;;;;;;9.40;99.90;;;;;;5029103;28;19931;-71
2023/10/26 03:29:15;;;;;;;;;;;9.40;99.90;;;;;;5003630;28;19945;-71
2023/10/26 03:31:41;;;;;;;;;;;9.40;99.90;;;;;;5035515;28;19924;-71
2023/10/26 03:34:07;;;;;;;;;;;9.40;99.90;;;;;;5029671;28;19921;-71
2023/10/26 03:36:36;;;;;;;;;;;9.40;99.90;;;;;;5007089;28;19929;-71
2023/10/26 03:39:02;;;;;;;;;;;9.30;99.90;;;;;;5003582;28;19940;-71
2023/10/26 03:41:28;;;;;;;;;;;9.30;99.90;;;;;;4997229;28;19936;-71
2023/10/26 03:43:54;;;;;;;;;;;9.30;99.90;;;;;;5009463;28;19929;-71
2023/10/26 03:46:20;;;;;;;;;;;9.30;99.90;;;;;;4983319;28;19925;-70
2023/10/26 03:48:46;;;;;;;;;;;9.20;99.90;;;;;;5010184;28;20315;-72
2023/10/26 03:51:12;;;;;;;;;;;9.20;99.90;;;;;;4994532;28;19983;-71
2023/10/26 03:53:38;;;;;;;;;;;9.20;99.90;;;;;;5003722;28;19929;-72
2023/10/26 03:56:04;;;;;;;;;;;9.30;99.90;;;;;;5001990;28;19931;-71
2023/10/26 03:58:30;;;;;;;;;;;9.20;99.90;;;;;;5025395;28;19940;-72
2023/10/26 04:00:57;;;;;;;;;;;9.20;99.90;;;;;;5002117;28;19929;-70
2023/10/26 04:03:23;;;;;;;;;;;9.30;99.90;;;;;;5019998;28;19940;-71
2023/10/26 04:05:49;;;;;;;;;;;9.30;99.90;;;;;;4984931;28;19929;-71
2023/10/26 04:08:15;;;;;;;;;;;9.20;99.90;;;;;;5033245;28;19921;-72
2023/10/26 04:10:41;;;;;;;;;;;9.30;99.90;;;;;;5008914;28;20287;-71
2023/10/26 04:13:07;;;;;;;;;;;9.30;99.90;;;;;;5041159;28;19928;-70
2023/10/26 04:15:33;;;;;;;;;;;9.30;99.90;;;;;;5004046;28;19934;-71
2023/10/26 04:18:00;;;;;;;;;;;9.30;99.90;;;;;;5042487;28;20409;-72
2023/10/26 04:20:26;;;;;;;;;;;9.30;99.90;;;;;;4998468;28;19933;-70
2023/10/26 04:22:52;;;;;;;;;;;9.30;99.90;;;;;;5042340;28;20446;-71
2023/10/26 04:25:18;;;;;;;;;;;9.30;99.90;;;;;;5001246;28;19928;-71
2023/10/26 04:27:44;;;;;;;;;;;9.30;99.90;;;;;;5044913;28;19951;-71
2023/10/26 04:30:12;;;;;;;;;;;9.20;99.90;;;;;;5004000;28;20032;-71
2023/10/26 04:32:41;;;;;;;;;;;9.20;99.90;;;;;;5047707;28;19928;-71
2023/10/26 04:35:10;;;;;;;;;;;9.20;99.90;;;;;;5026340;28;19925;-71
2023/10/26 04:37:36;;;;;;;;;;;9.20;99.90;;;;;;5032095;28;20419;-71
2023/10/26 04:40:03;;;;;;;;;;;9.10;99.90;;;;;;4996660;28;19925;-71
2023/10/26 04:42:29;;;;;;;;;;;9.10;99.90;;;;;;5001204;28;19921;-70
2023/10/26 04:44:55;;;;;;;;;;;9.10;99.90;;;;;;4986713;28;20024;-69
2023/10/26 04:47:20;;;;;;;;;;;9.00;99.90;;;;;;4989509;28;20388;-71
2023/10/26 04:49:46;;;;;;;;;;;9.10;99.90;;;;;;5008168;28;19949;-71
2023/10/26 04:52:15;;;;;;;;;;;9.00;99.90;;;;;;5006867;28;19929;-71
2023/10/26 04:54:41;;;;;;;;;;;9.00;99.90;;;;;;5007321;28;19929;-71
2023/10/26 04:57:07;;;;;;;;;;;9.00;99.90;;;;;;4987888;28;19922;-71
2023/10/26 04:59:34;;;;;;;;;;;9.00;99.90;;;;;;5005208;28;19929;-70
2023/10/26 05:01:59;;;;;;;;;;;9.00;99.90;;;;;;4993720;28;19947;-70
2023/10/26 05:04:25;;;;;;;;;;;8.90;99.90;;;;;;5056838;28;21261;-71
2023/10/26 05:06:51;;;;;;;;;;;8.90;99.90;;;;;;5044183;28;20410;-70
2023/10/26 05:09:17;;;;;;;;;;;8.80;99.90;;;;;;5040912;28;20008;-71
2023/10/26 05:11:43;;;;;;;;;;;8.80;99.90;;;;;;4999085;28;19925;-71
2023/10/26 05:14:09;;;;;;;;;;;8.80;99.90;;;;;;5005958;28;19987;-69
2023/10/26 05:16:36;;;;;;;;;;;8.80;99.90;;;;;;5003225;28;19927;-68
2023/10/26 05:19:02;;;;;;;;;;;8.80;99.90;;;;;;5003046;28;20293;-69
2023/10/26 05:21:28;;;;;;;;;;;8.80;99.90;;;;;;5019788;28;19928;-69
2023/10/26 05:23:54;;;;;;;;;;;8.80;99.90;;;;;;5029299;28;19932;-69
2023/10/26 05:26:20;;;;;;;;;;;8.80;99.90;;;;;;5009403;28;20413;-70
2023/10/26 05:28:47;;;;;;;;;;;8.80;99.90;;;;;;5034584;28;19959;-69
2023/10/26 05:31:13;;;;;;;;;;;8.90;99.90;;;;;;5019128;28;19933;-70
2023/10/26 05:33:38;;;;;;;;;;;8.90;99.90;;;;;;5034001;28;19925;-70
2023/10/26 05:36:05;;;;;;;;;;;8.90;99.90;;;;;;4994085;28;20006;-70
2023/10/26 05:38:30;;;;;;;;;;;8.90;99.90;;;;;;5008105;28;19937;-69
2023/10/26 05:40:57;;;;;;;;;;;8.90;99.90;;;;;;5000138;28;19941;-68
2023/10/26 05:43:23;;;;;;;;;;;8.90;99.90;;;;;;5034317;28;19929;-70
2023/10/26 05:45:49;;;;;;;;;;;8.90;99.90;;;;;;5011339;28;20664;-69
2023/10/26 05:48:16;;;;;;;;;;;8.90;99.90;;;;;;5038194;28;19925;-70
2023/10/26 05:50:42;;;;;;;;;;;8.80;99.90;;;;;;4997310;28;19933;-70
2023/10/26 05:53:09;;;;;;;;;;;8.90;99.90;;;;;;5015546;28;19922;-70
2023/10/26 05:55:35;;;;;;;;;;;8.90;99.90;;;;;;4996701;28;19925;-71
2023/10/26 05:58:02;;;;;;;;;;;8.90;99.90;;;;;;5041630;28;19929;-69
2023/10/26 06:00:28;;;;;;;;;;;8.80;99.90;;;;;;5004089;28;19921;-70
2023/10/26 06:02:57;;;;;;;;;;;8.80;99.90;;;;;;5023196;28;19926;-69
2023/10/26 06:05:22;;;;;;;;;;;8.80;99.90;;;;;;4990349;28;19925;-70
2023/10/26 06:07:48;;;;;;;;;;;8.80;99.90;;;;;;5033169;28;19927;-71
2023/10/26 06:10:14;;;;;;;;;;;8.70;99.90;;;;;;5002606;28;19940;-70
2023/10/26 06:12:40;;;;;;;;;;;8.80;99.90;;;;;;5048880;28;19921;-70
2023/10/26 06:15:06;;;;;;;;;;;8.80;99.90;;;;;;5002321;28;20311;-69
2023/10/26 06:17:32;;;;;;;;;;;8.80;99.90;;;;;;5051465;28;20022;-70
2023/10/26 06:19:58;;;;;;;;;;;8.80;99.90;;;;;;5006577;28;20280;-70
2023/10/26 06:22:24;;;;;;;;;;;8.80;99.90;;;;;;5025172;28;19931;-70
2023/10/26 06:24:50;;;;;;;;;;;8.80;99.90;;;;;;5022054;28;19999;-70
2023/10/26 06:27:16;;;;;;;;;;;8.80;99.90;;;;;;4991460;28;19925;-70
2023/10/26 06:29:43;;;;;;;;;;;8.80;99.90;;;;;;4988766;28;20024;-69
2023/10/26 06:32:10;;;;;;;;;;;8.90;99.90;;;;;;5008300;28;19928;-70
2023/10/26 06:34:36;;;;;;;;;;;8.90;99.90;;;;;;5021008;28;19928;-70
2023/10/26 06:37:02;;;;;;;;;;;8.90;99.90;;;;;;5021886;28;20011;-69
2023/10/26 06:39:28;;;;;;;;;;;8.80;99.90;;;;;;5005892;28;20400;-71
2023/10/26 06:41:56;;;;;;;;;;;8.90;99.90;;;;;;5012615;28;19943;-71
2023/10/26 06:44:22;;;;;;;;;;;8.90;99.90;;;;;;5020943;28;20009;-71
2023/10/26 06:46:47;;;;;;;;;;;8.90;99.90;;;;;;5033319;28;19924;-71
2023/10/26 06:49:13;;;;;;;;;;;9.00;99.90;;;;;;5053553;28;19929;-72
2023/10/26 06:51:39;;;;;;;;;;;9.00;99.90;;;;;;4991166;28;19933;-72
2023/10/26 06:54:05;;;;;;;;;;;9.00;99.90;;;;;;5024492;28;19926;-71
2023/10/26 06:56:31;;;;;;;;;;;9.00;99.90;;;;;;5015369;28;19932;-71
2023/10/26 06:58:57;;;;;;;;;;;9.00;99.90;;;;;;5022230;28;20475;-72
2023/10/26 07:01:23;;;;;;;;;;;9.00;99.90;;;;;;5031056;28;19928;-71
2023/10/26 07:03:50;;;;;;;;;;;9.00;99.90;;;;;;5032947;28;20629;-72
2023/10/26 07:06:16;;;;;;;;;;;9.00;99.90;;;;;;5016817;28;19935;-72
2023/10/26 07:08:41;;;;;;;;;;;9.00;99.90;;;;;;5028369;28;19925;-72
2023/10/26 07:11:07;;;;;;;;;;;9.00;99.90;;;;;;5015871;28;20400;-71
2023/10/26 07:13:34;;;;;;;;;;;9.00;99.90;;;;;;5028528;28;19929;-71
2023/10/26 07:16:00;;;;;;;;;;;9.00;99.90;;;;;;4992398;28;20498;-70
2023/10/26 07:18:26;;;;;;;;;;;9.00;99.90;;;;;;5016504;28;19929;-71
2023/10/26 07:20:53;;;;;;;;;;;9.00;99.90;;;;;;4994667;28;20420;-70
2023/10/26 07:23:19;;;;;;;;;;;9.10;99.90;;;;;;5041125;28;19944;-71
2023/10/26 07:25:46;;;;;;;;;;;9.10;99.90;;;;;;5008075;28;20370;-71
2023/10/26 07:28:12;;;;;;;;;;;9.10;99.90;;;;;;5036485;28;19953;-71
2023/10/26 07:30:38;;;;;;;;;;;9.20;99.90;;;;;;5006743;28;19945;-70
2023/10/26 07:33:04;;;;;;;;;;;9.10;99.90;;;;;;5051952;28;19932;-72
2023/10/26 07:35:30;;;;;;;;;;;9.10;99.90;;;;;;4996528;28;19935;-71
2023/10/26 07:37:56;;;;;;;;;;;9.10;99.90;;;;;;5019838;28;19921;-71
2023/10/26 07:40:22;;;;;;;;;;;9.10;99.90;;;;;;4980886;28;19921;-71
2023/10/26 07:42:48;;;;;;;;;;;9.10;99.90;;;;;;5031061;28;19930;-71
2023/10/26 07:45:14;;;;;;;;;;;9.20;99.90;;;;;;4998540;28;19936;-72
2023/10/26 07:47:40;;;;;;;;;;;9.20;99.90;;;;;;5032776;28;20331;-71
2023/10/26 07:50:06;;;;;;;;;;;9.30;99.90;;;;;;4997821;28;19925;-71
2023/10/26 07:52:31;;;;;;;;;;;9.30;99.90;;;;;;5065228;28;20311;-72
2023/10/26 07:54:58;;;;;;;;;;;9.30;99.90;;;;;;4993394;28;19929;-71
2023/10/26 07:57:25;;;;;;;;;;;9.40;99.90;;;;;;5032470;28;20411;-71
2023/10/26 07:59:50;;;;;;;;;;;9.40;99.90;;;;;;5015940;28;19925;-71
2023/10/26 08:02:16;;;;;;;;;;;9.50;99.90;;;;;;5028864;28;20436;-71
2023/10/26 08:04:42;;;;;;;;;;;9.60;99.90;;;;;;5029631;28;19921;-70
2023/10/26 08:07:08;;;;;;;;;;;9.70;99.90;;;;;;5045686;28;19928;-71
2023/10/26 08:09:34;;;;;;;;;;;9.80;99.90;;;;;;5026381;28;20511;-71
2023/10/26 08:12:00;;;;;;;;;;;9.90;99.90;;;;;;4995719;28;19935;-71
2023/10/26 08:14:27;;;;;;;;;;;10.00;99.90;;;;;;5004603;28;19930;-70
2023/10/26 08:16:55;;;;;;;;;;;10.10;99.90;;;;;;5014956;28;20403;-70
2023/10/26 08:19:21;;;;;;;;;;;10.20;99.90;;;;;;5005462;28;19929;-71
2023/10/26 08:21:46;;;;;;;;;;;10.20;99.90;;;;;;5013494;28;19951;-71
2023/10/26 08:24:12;;;;;;;;;;;10.40;99.90;;;;;;5005287;28;21013;-71
2023/10/26 08:26:38;;;;;;;;;;;10.40;99.90;;;;;;5009046;28;20421;-71
2023/10/26 08:29:04;;;;;;;;;;;10.50;99.90;;;;;;5028284;28;19935;-71
2023/10/26 08:31:33;;;;;;;;;;;10.50;99.90;;;;;;5008447;28;20331;-71
2023/10/26 08:33:59;;;;;;;;;;;10.50;99.90;;;;;;5009249;28;20510;-71
2023/10/26 08:36:25;;;;;;;;;;;10.50;99.90;;;;;;5014695;28;19928;-72
2023/10/26 08:38:51;;;;;;;;;;;10.60;99.90;;;;;;5027580;28;19921;-72
2023/10/26 08:41:17;;;;;;;;;;;10.70;99.90;;;;;;5012352;28;20383;-73
2023/10/26 08:43:43;;;;;;;;;;;10.90;99.90;;;;;;5014377;28;19921;-72
2023/10/26 08:46:10;;;;;;;;;;;10.90;99.90;;;;;;4995304;28;19932;-72
2023/10/26 08:48:38;;;;;;;;;;;10.70;99.90;;;;;;5012364;28;19933;-72
2023/10/26 08:51:04;;;;;;;;;;;10.80;99.90;;;;;;4997940;28;19929;-71
2023/10/26 08:53:31;;;;;;;;;;;10.80;99.90;;;;;;5039989;28;19924;-72
2023/10/26 08:55:59;;;;;;;;;;;10.80;99.90;;;;;;5014093;28;19931;-71
2023/10/26 08:58:25;;;;;;;;;;;10.70;99.90;;;;;;5019377;28;19930;-72
2023/10/26 09:00:51;;;;;;;;;;;10.80;99.90;;;;;;4986617;28;19925;-72
2023/10/26 09:03:18;;;;;;;;;;;10.90;99.90;;;;;;5023152;28;19929;-73
2023/10/26 09:05:51;;;;;;;;;;;10.80;99.90;;;;;;5016549;28;19928;-72
2023/10/26 09:08:20;;;;;;;;;;;10.90;99.90;;;;;;5038871;28;20475;-74
2023/10/26 09:10:46;;;;;;;;;;;10.90;99.90;;;;;;5012446;28;19932;-71
2023/10/26 09:13:14;;;;;;;;;;;10.90;99.90;;;;;;5042535;28;19932;-72
2023/10/26 09:15:50;;;;;;;;;;;10.80;99.90;;;;;;5003857;28;20005;-72
2023/10/26 09:18:16;;;;;;;;;;;10.80;99.90;;;;;;4997384;28;19945;-71
2023/10/26 09:20:43;;;;;;;;;;;10.80;99.90;;;;;;4988732;28;19935;-73
2023/10/26 09:23:28;;;;;;;;;;;10.80;99.90;;;;;;5030275;28;20283;-72
2023/10/26 09:25:57;;;;;;;;;;;10.90;99.90;;;;;;5007268;28;19925;-72
2023/10/26 09:28:23;;;;;;;;;;;10.90;99.90;;;;;;5025523;28;19933;-71
2023/10/26 09:30:49;;;;;;;;;;;10.90;99.90;;;;;;4993551;28;19924;-72
2023/10/26 09:33:26;;;;;;;;;;;10.90;99.90;;;;;;5033123;28;19935;-71
2023/10/26 09:35:52;;;;;;;;;;;10.70;99.90;;;;;;5005956;28;20411;-70
2023/10/26 09:38:35;;;;;;;;;;;10.70;99.90;;;;;;5036158;28;19921;-72
2023/10/26 09:41:04;;;;;;;;;;;10.70;99.90;;;;;;5001061;28;19928;-71
2023/10/26 09:43:30;;;;;;;;;;;10.90;99.90;;;;;;5025734;28;20403;-72
2023/10/26 09:45:56;;;;;;;;;;;10.90;99.90;;;;;;5004537;28;20007;-71
2023/10/26 09:48:23;;;;;;;;;;;10.90;99.90;;;;;;5037699;28;20340;-70
2023/10/26 09:50:49;;;;;;;;;;;10.90;99.90;;;;;;5008424;28;19932;-71
2023/10/26 09:53:16;;;;;;;;;;;10.80;99.90;;;;;;5038874;28;19925;-71
2023/10/26 09:55:43;;;;;;;;;;;10.80;99.90;;;;;;5015021;28;20419;-72
2023/10/26 09:58:10;;;;;;;;;;;10.70;99.90;;;;;;5040743;28;20471;-71
2023/10/26 10:00:36;;;;;;;;;;;10.70;99.90;;;;;;4997726;28;19928;-71
2023/10/26 10:03:13;;;;;;;;;;;10.90;99.90;;;;;;5019982;28;19940;-71
2023/10/26 10:05:39;;;;;;;;;;;10.90;99.90;;;;;;4991985;28;19929;-71
2023/10/26 10:08:06;;;;;;;;;;;11.10;99.90;;;;;;5024197;28;19921;-71
2023/10/26 10:10:33;;;;;;;;;;;11.20;99.90;;;;;;5003393;28;20728;-71
2023/10/26 10:12:59;;;;;;;;;;;11.40;99.90;;;;;;5053239;28;19926;-70
2023/10/26 10:15:34;;;;;;;;;;;11.40;99.90;;;;;;5004998;28;20070;-70
2023/10/26 10:18:02;;;;;;;;;;;11.40;99.90;;;;;;5037171;28;19928;-70
2023/10/26 10:20:29;;;;;;;;;;;11.40;99.90;;;;;;4997675;28;19967;-70
2023/10/26 10:22:58;;;;;;;;;;;11.40;99.90;;;;;;5020358;28;20023;-69
2023/10/26 10:25:43;;;;;;;;;;;11.30;99.90;;;;;;4985454;28;19921;-71
2023/10/26 10:28:10;;;;;;;;;;;11.20;99.90;;;;;;5035140;28;19928;-71
2023/10/26 10:30:46;;;;;;;;;;;11.30;99.90;;;;;;4988500;28;20008;-71
2023/10/26 10:33:19;;;;;;;;;;;11.30;99.90;;;;;;4981065;28;19932;-70
2023/10/26 10:35:50;;;;;;;;;;;11.40;99.90;;;;;;4985529;28;19943;-71
2023/10/26 10:38:17;;;;;;;;;;;11.50;99.90;;;;;;5026291;28;20577;-72
2023/10/26 10:40:55;;;;;;;;;;;11.60;99.90;;;;;;4988654;28;20394;-71
2023/10/26 10:43:34;;;;;;;;;;;11.80;99.90;;;;;;5025333;28;19936;-70
2023/10/26 10:46:12;;;;;;;;;;;11.80;99.90;;;;;;4989875;28;19929;-71
2023/10/26 10:48:57;;;;;;;;;;;11.90;99.90;;;;;;5002931;28;19925;-70
2023/10/26 10:51:33;;;;;;;;;;;11.90;99.90;;;;;;4995311;28;19925;-71
2023/10/26 10:53:59;;;;;;;;;;;12.00;99.90;;;;;;5000763;28;19928;-72
2023/10/26 10:56:25;;;;;;;;;;;12.10;99.90;;;;;;4984862;28;19928;-70
2023/10/26 10:58:52;;;;;;;;;;;12.30;99.90;;;;;;5004206;28;20294;-70
2023/10/26 11:01:19;;;;;;;;;;;12.50;99.90;;;;;;4994913;28;20300;-70
2023/10/26 11:03:46;;;;;;;;;;;12.50;99.90;;;;;;5006835;28;19929;-71
2023/10/26 11:06:13;;;;;;;;;;;12.40;99.90;;;;;;5016925;28;19921;-71
2023/10/26 11:08:39;;;;;;;;;;;12.50;99.90;;;;;;5027292;28;19921;-70
2023/10/26 11:11:05;;;;;;;;;;;12.40;99.90;;;;;;5003661;28;19925;-70
2023/10/26 11:13:30;;;;;;;;;;;12.20;99.90;;;;;;5023620;28;20671;-70
2023/10/26 11:15:56;;;;;;;;;;;12.20;99.90;;;;;;5008262;28;19928;-70
2023/10/26 11:18:22;;;;;;;;;;;12.10;99.90;;;;;;5037521;28;19932;-71
2023/10/26 11:20:49;;;;;;;;;;;12.10;99.90;;;;;;4998432;28;19935;-70
2023/10/26 11:23:16;;;;;;;;;;;12.20;99.90;;;;;;5033055;28;19925;-71
2023/10/26 11:25:44;;;;;;;;;;;12.20;99.90;;;;;;4997024;28;19925;-71
2023/10/26 11:28:10;;;;;;;;;;;12.30;99.90;;;;;;5038699;28;19921;-71
2023/10/26 11:30:49;;;;;;;;;;;12.30;99.90;;;;;;5001507;28;19924;-71
2023/10/26 11:33:33;;;;;;;;;;;12.40;99.90;;;;;;5031713;28;19944;-69
2023/10/26 11:35:59;;;;;;;;;;;12.50;99.90;;;;;;5016148;28;19931;-69
2023/10/26 11:38:26;;;;;;;;;;;12.50;99.90;;;;;;5045564;28;19925;-70
2023/10/26 11:40:52;;;;;;;;;;;12.50;99.90;;;;;;4991124;28;19932;-71
2023/10/26 11:43:34;;;;;;;;;;;12.50;99.90;;;;;;4983321;28;19933;-70
2023/10/26 11:46:02;;;;;;;;;;;12.40;99.90;;;;;;5002435;28;20804;-70
2023/10/26 11:48:30;;;;;;;;;;;12.40;99.90;;;;;;5038506;28;19924;-69
2023/10/26 11:50:57;;;;;;;;;;;12.50;99.90;;;;;;5004252;28;20488;-71
2023/10/26 11:53:23;;;;;;;;;;;12.50;99.90;;;;;;5028994;28;20299;-70
2023/10/26 11:55:49;;;;;;;;;;;12.60;99.90;;;;;;5003644;28;19921;-69
2023/10/26 11:58:15;;;;;;;;;;;12.70;99.90;;;;;;5028445;28;19925;-70
2023/10/26 12:00:44;;;;;;;;;;;12.80;99.90;;;;;;5005438;28;19924;-70
2023/10/26 12:03:10;;;;;;;;;;;12.60;99.90;;;;;;5054742;28;19925;-69
2023/10/26 12:05:36;;;;;;;;;;;12.60;99.90;;;;;;5003787;28;19931;-69
2023/10/26 12:08:02;;;;;;;;;;;12.60;99.90;;;;;;5039818;28;19936;-70
2023/10/26 12:10:28;;;;;;;;;;;12.90;99.90;;;;;;4993287;28;21236;-70
2023/10/26 12:12:54;;;;;;;;;;;13.00;99.90;;;;;;5012843;28;19930;-71
2023/10/26 12:15:20;;;;;;;;;;;13.20;99.90;;;;;;4995315;28;20343;-69
2023/10/26 12:17:47;;;;;;;;;;;13.30;99.90;;;;;;5014993;28;19929;-71
2023/10/26 12:20:14;;;;;;;;;;;13.50;99.90;;;;;;4981925;28;19933;-71
2023/10/26 12:22:41;;;;;;;;;;;13.50;99.90;;;;;;5028896;28;19932;-71
2023/10/26 12:25:07;;;;;;;;;;;13.80;99.90;;;;;;4979078;28;19941;-70
2023/10/26 12:27:34;;;;;;;;;;;14.10;99.90;;;;;;5023267;28;19929;-70
2023/10/26 12:30:00;;;;;;;;;;;14.30;99.90;;;;;;5007408;28;20031;-70
2023/10/26 12:32:26;;;;;;;;;;;14.80;99.90;;;;;;5032473;28;19929;-70
2023/10/26 12:34:52;;;;;;;;;;;15.40;99.90;;;;;;4995959;28;20324;-70
2023/10/26 12:37:18;;;;;;;;;;;16.70;99.90;;;;;;5022490;28;19956;-70
2023/10/26 12:39:44;;;;;;;;;;;17.50;99.90;;;;;;5027066;28;19996;-70
2023/10/26 12:42:10;;;;;;;;;;;17.30;99.90;;;;;;5003676;28;19925;-72
2023/10/26 12:44:36;;;;;;;;;;;18.10;99.90;;;;;;5000975;28;20419;-70
2023/10/26 12:47:02;;;;;;;;;;;17.90;99.90;;;;;;5039323;28;19975;-70
2023/10/26 12:49:27;;;;;;;;;;;17.40;99.90;;;;;;5027713;28;20455;-72
2023/10/26 12:51:53;;;;;;;;;;;17.00;99.90;;;;;;4996437;28;19933;-69
2023/10/26 12:54:19;;;;;;;;;;;17.90;99.90;;;;;;5005401;28;19929;-70
2023/10/26 12:56:45;;;;;;;;;;;18.60;99.90;;;;;;5006867;28;19932;-71
2023/10/26 12:59:11;;;;;;;;;;;19.40;99.90;;;;;;5004000;28;20320;-70
2023/10/26 13:01:37;;;;;;;;;;;20.10;99.90;;;;;;5000800;28;19924;-71
2023/10/26 13:04:06;;;;;;;;;;;20.20;99.90;;;;;;5004309;28;19929;-70
2023/10/26 13:06:36;;;;;;;;;;;20.30;99.90;;;;;;4982365;28;19937;-70
2023/10/26 13:09:05;;;;;;;;;;;20.80;99.90;;;;;;5004508;28;19929;-70
2023/10/26 13:11:31;;;;;;;;;;;21.30;99.90;;;;;;5018948;28;19931;-70
2023/10/26 13:13:57;;;;;;;;;;;21.30;99.90;;;;;;5026332;28;19925;-70
2023/10/26 13:16:23;;;;;;;;;;;20.90;99.90;;;;;;5005282;28;19924;-71
2023/10/26 13:18:49;;;;;;;;;;;21.00;99.90;;;;;;5011196;28;19940;-71
2023/10/26 13:21:15;;;;;;;;;;;20.90;99.90;;;;;;4994440;28;19925;-72
2023/10/26 13:23:41;;;;;;;;;;;21.30;99.90;;;;;;5004644;28;19925;-71
2023/10/26 13:26:07;;;;;;;;;;;21.40;99.90;;;;;;5007600;28;20323;-71
2023/10/26 13:28:33;;;;;;;;;;;21.40;99.90;;;;;;5011764;28;19936;-70
2023/10/26 13:30:58;;;;;;;;;;;21.50;99.90;;;;;;5007508;28;20044;-71
2023/10/26 13:33:26;;;;;;;;;;;21.90;99.90;;;;;;5009420;28;19929;-71
2023/10/26 13:35:53;;;;;;;;;;;21.50;99.60;;;;;;4972389;28;19941;-72
2023/10/26 13:38:19;;;;;;;;;;;20.80;99.90;;;;;;4999202;28;19925;-72
2023/10/26 13:40:45;;;;;;;;;;;20.00;99.00;;;;;;5010914;28;19927;-70
2023/10/26 13:43:11;;;;;;;;;;;19.80;99.90;;;;;;5030562;28;19936;-71
2023/10/26 13:45:37;;;;;;;;;;;19.80;99.90;;;;;;5001569;28;19925;-72
2023/10/26 13:48:06;;;;;;;;;;;20.10;99.90;;;;;;5034928;28;19944;-70
2023/10/26 13:50:32;;;;;;;;;;;20.10;99.90;;;;;;5001174;28;19987;-70
2023/10/26 13:52:58;;;;;;;;;;;20.10;99.90;;;;;;5031708;28;19929;-70
2023/10/26 13:55:25;;;;;;;;;;;19.20;99.90;;;;;;4993183;28;19963;-73
2023/10/26 13:57:52;;;;;;;;;;;18.60;99.90;;;;;;5008044;28;19932;-70
2023/10/26 14:00:18;;;;;;;;;;;18.10;99.90;;;;;;4980518;28;19924;-71
2023/10/26 14:02:44;;;;;;;;;;;17.50;99.90;;;;;;5047930;28;20289;-71
2023/10/26 14:05:10;;;;;;;;;;;17.00;99.90;;;;;;5000259;28;19931;-71
2023/10/26 14:07:36;;;;;;;;;;;16.60;99.90;;;;;;5053312;28;19928;-70
2023/10/26 14:10:06;;;;;;;;;;;16.40;99.90;;;;;;4994648;28;19945;-71
2023/10/26 14:12:32;;;;;;;;;;;16.50;99.90;;;;;;5049327;28;20289;-71
2023/10/26 14:15:02;;;;;;;;;;;16.60;99.90;;;;;;4992306;28;20423;-71
2023/10/26 14:17:28;;;;;;;;;;;16.80;99.90;;;;;;5016497;28;20304;-70
2023/10/26 14:19:54;;;;;;;;;;;16.90;99.90;;;;;;4991603;28;19921;-70
2023/10/26 14:22:19;;;;;;;;;;;16.30;99.90;;;;;;5021529;28;19980;-70